sensor_id;sensor_type;location;lat;lon;timestamp;pressure;altitude;pressure_sealevel;temperature;humidity
45872;BME280;32333;55.844;-3.210;2023-04-19T00:01:48;101485.82;;;6.18;100.00
45872;BME280;32333;55.844;-3.210;2023-04-19T00:04:17;101487.71;;;4.60;100.00
45872;BME280;32333;55.844;-3.210;2023-04-19T00:06:44;101484.90;;;4.99;100.00
45872;BME280;32333;55.844;-3.210;2023-04-19T00:09:12;101489.23;;;5.52;100.00
45872;BME280;32333;55.844;-3.210;2023-04-19T00:11:39;101488.22;;;5.68;100.00
45872;BME280;32333;55.844;-3.210;2023-04-19T00:14:36;101484.51;;;5.44;100.00
45872;BME280;32333;55.844;-3.210;2023-04-19T00:17:03;101489.47;;;4.40;100.00
45872;BME280;32333;55.844;-3.210;2023-04-19T00:19:31;101486.17;;;3.57;100.00
45872;BME280;32333;55.844;-3.210;2023-04-19T00:21:59;101484.02;;;5.21;100.00
45872;BME280;32333;55.844;-3.210;2023-04-19T00:24:27;101484.23;;;3.88;100.00
45872;BME280;32333;55.844;-3.210;2023-04-19T00:26:54;101478.73;;;3.35;100.00
45872;BME280;32333;55.844;-3.210;2023-04-19T00:29:22;101478.05;;;4.04;100.00
45872;BME280;32333;55.844;-3.210;2023-04-19T00:31:50;101474.63;;;5.62;100.00
45872;BME280;32333;55.844;-3.210;2023-04-19T00:34:17;101470.91;;;5.17;100.00
45872;BME280;32333;55.844;-3.210;2023-04-19T00:36:45;101465.94;;;4.99;100.00
45872;BME280;32333;55.844;-3.210;2023-04-19T00:39:13;101462.57;;;4.55;100.00
45872;BME280;32333;55.844;-3.210;2023-04-19T00:41:41;101464.07;;;4.95;100.00
45872;BME280;32333;55.844;-3.210;2023-04-19T00:44:35;101462.90;;;5.12;100.00
45872;BME280;32333;55.844;-3.210;2023-04-19T00:47:03;101467.87;;;4.40;100.00
45872;BME280;32333;55.844;-3.210;2023-04-19T00:49:31;101470.95;;;4.84;100.00
45872;BME280;32333;55.844;-3.210;2023-04-19T00:51:59;101469.93;;;4.54;100.00
45872;BME280;32333;55.844;-3.210;2023-04-19T00:54:26;101473.46;;;5.07;100.00
45872;BME280;32333;55.844;-3.210;2023-04-19T00:56:54;101471.25;;;6.01;100.00
45872;BME280;32333;55.844;-3.210;2023-04-19T00:59:23;101469.53;;;6.00;100.00
45872;BME280;32333;55.844;-3.210;2023-04-19T01:01:51;101463.42;;;5.33;100.00
45872;BME280;32333;55.844;-3.210;2023-04-19T01:04:19;101464.39;;;3.72;100.00
45872;BME280;32333;55.844;-3.210;2023-04-19T01:06:46;101461.06;;;5.29;100.00
45872;BME280;32333;55.844;-3.210;2023-04-19T01:09:14;101460.26;;;4.72;100.00
45872;BME280;32333;55.844;-3.210;2023-04-19T01:11:42;101461.51;;;5.49;100.00
45872;BME280;32333;55.844;-3.210;2023-04-19T01:14:35;101459.67;;;6.00;100.00
45872;BME280;32333;55.844;-3.210;2023-04-19T01:17:02;101458.88;;;5.62;100.00
45872;BME280;32333;55.844;-3.210;2023-04-19T01:19:30;101458.03;;;6.33;100.00
45872;BME280;32333;55.844;-3.210;2023-04-19T01:21:58;101462.97;;;6.09;100.00
45872;BME280;32333;55.844;-3.210;2023-04-19T01:24:26;101454.41;;;6.77;100.00
45872;BME280;32333;55.844;-3.210;2023-04-19T01:26:53;101446.88;;;7.05;100.00
45872;BME280;32333;55.844;-3.210;2023-04-19T01:29:20;101453.74;;;6.25;100.00
45872;BME280;32333;55.844;-3.210;2023-04-19T01:31:49;101453.79;;;6.57;100.00
45872;BME280;32333;55.844;-3.210;2023-04-19T01:34:17;101458.68;;;5.57;100.00
45872;BME280;32333;55.844;-3.210;2023-04-19T01:36:45;101459.57;;;5.57;100.00
45872;BME280;32333;55.844;-3.210;2023-04-19T01:39:14;101455.49;;;5.78;100.00
45872;BME280;32333;55.844;-3.210;2023-04-19T01:41:43;101455.78;;;2.86;100.00
45872;BME280;32333;55.844;-3.210;2023-04-19T01:44:35;101454.00;;;5.03;100.00
45872;BME280;32333;55.844;-3.210;2023-04-19T01:47:03;101451.88;;;4.86;100.00
45872;BME280;32333;55.844;-3.210;2023-04-19T01:49:31;101451.65;;;4.67;100.00
45872;BME280;32333;55.844;-3.210;2023-04-19T01:52:00;101448.00;;;4.89;100.00
45872;BME280;32333;55.844;-3.210;2023-04-19T01:54:27;101449.48;;;5.60;100.00
45872;BME280;32333;55.844;-3.210;2023-04-19T01:56:55;101444.65;;;5.05;100.00
45872;BME280;32333;55.844;-3.210;2023-04-19T01:59:22;101442.11;;;5.50;100.00
45872;BME280;32333;55.844;-3.210;2023-04-19T02:01:50;101433.77;;;5.05;100.00
45872;BME280;32333;55.844;-3.210;2023-04-19T02:04:19;101429.61;;;4.37;100.00
45872;BME280;32333;55.844;-3.210;2023-04-19T02:06:47;101431.72;;;4.64;100.00
45872;BME280;32333;55.844;-3.210;2023-04-19T02:09:15;101430.63;;;4.38;100.00
45872;BME280;32333;55.844;-3.210;2023-04-19T02:11:43;101432.69;;;4.98;100.00
45872;BME280;32333;55.844;-3.210;2023-04-19T02:14:35;101427.82;;;5.09;100.00
45872;BME280;32333;55.844;-3.210;2023-04-19T02:17:03;101431.74;;;4.89;100.00
45872;BME280;32333;55.844;-3.210;2023-04-19T02:19:30;101427.50;;;5.07;100.00
45872;BME280;32333;55.844;-3.210;2023-04-19T02:21:59;101428.53;;;5.81;100.00
45872;BME280;32333;55.844;-3.210;2023-04-19T02:24:26;101427.16;;;4.84;100.00
45872;BME280;32333;55.844;-3.210;2023-04-19T02:26:54;101424.45;;;5.47;100.00
45872;BME280;32333;55.844;-3.210;2023-04-19T02:29:21;101419.96;;;4.32;100.00
45872;BME280;32333;55.844;-3.210;2023-04-19T02:31:49;101420.79;;;4.70;100.00
45872;BME280;32333;55.844;-3.210;2023-04-19T02:34:16;101417.72;;;4.49;100.00
45872;BME280;32333;55.844;-3.210;2023-04-19T02:36:44;101417.80;;;5.32;100.00
45872;BME280;32333;55.844;-3.210;2023-04-19T02:39:13;101417.96;;;4.87;100.00
45872;BME280;32333;55.844;-3.210;2023-04-19T02:41:40;101417.01;;;3.68;100.00
45872;BME280;32333;55.844;-3.210;2023-04-19T02:44:35;101421.55;;;4.78;100.00
45872;BME280;32333;55.844;-3.210;2023-04-19T02:47:03;101428.43;;;3.06;100.00
45872;BME280;32333;55.844;-3.210;2023-04-19T02:49:31;101424.90;;;4.04;100.00
45872;BME280;32333;55.844;-3.210;2023-04-19T02:52:00;101424.73;;;4.07;100.00
45872;BME280;32333;55.844;-3.210;2023-04-19T02:54:27;101426.62;;;3.38;100.00
45872;BME280;32333;55.844;-3.210;2023-04-19T02:56:54;101428.38;;;3.31;100.00
45872;BME280;32333;55.844;-3.210;2023-04-19T02:59:22;101430.10;;;2.98;100.00
45872;BME280;32333;55.844;-3.210;2023-04-19T03:01:50;101430.95;;;2.61;100.00
45872;BME280;32333;55.844;-3.210;2023-04-19T03:04:18;101432.34;;;2.62;100.00
45872;BME280;32333;55.844;-3.210;2023-04-19T03:06:45;101431.26;;;2.21;100.00
45872;BME280;32333;55.844;-3.210;2023-04-19T03:09:13;101430.72;;;2.88;100.00
45872;BME280;32333;55.844;-3.210;2023-04-19T03:11:40;101427.96;;;2.01;100.00
45872;BME280;32333;55.844;-3.210;2023-04-19T03:14:35;101428.93;;;2.70;100.00
45872;BME280;32333;55.844;-3.210;2023-04-19T03:17:03;101426.52;;;3.48;100.00
45872;BME280;32333;55.844;-3.210;2023-04-19T03:19:30;101429.84;;;3.38;100.00
45872;BME280;32333;55.844;-3.210;2023-04-19T03:21:57;101429.13;;;3.68;100.00
45872;BME280;32333;55.844;-3.210;2023-04-19T03:24:27;101429.52;;;3.39;100.00
45872;BME280;32333;55.844;-3.210;2023-04-19T03:26:54;101425.91;;;3.59;100.00
45872;BME280;32333;55.844;-3.210;2023-04-19T03:29:22;101423.81;;;3.95;100.00
45872;BME280;32333;55.844;-3.210;2023-04-19T03:31:50;101424.56;;;2.14;100.00
45872;BME280;32333;55.844;-3.210;2023-04-19T03:34:18;101426.12;;;3.55;100.00
45872;BME280;32333;55.844;-3.210;2023-04-19T03:36:46;101422.29;;;4.33;100.00
45872;BME280;32333;55.844;-3.210;2023-04-19T03:39:13;101423.09;;;4.13;100.00
45872;BME280;32333;55.844;-3.210;2023-04-19T03:41:41;101420.62;;;3.19;100.00
45872;BME280;32333;55.844;-3.210;2023-04-19T03:44:35;101415.57;;;4.23;100.00
45872;BME280;32333;55.844;-3.210;2023-04-19T03:47:03;101416.77;;;3.61;100.00
45872;BME280;32333;55.844;-3.210;2023-04-19T03:49:30;101413.84;;;3.73;100.00
45872;BME280;32333;55.844;-3.210;2023-04-19T03:51:57;101410.67;;;3.92;100.00
45872;BME280;32333;55.844;-3.210;2023-04-19T03:54:26;101410.19;;;3.68;100.00
45872;BME280;32333;55.844;-3.210;2023-04-19T03:56:53;101407.70;;;3.24;100.00
45872;BME280;32333;55.844;-3.210;2023-04-19T03:59:21;101408.59;;;1.62;100.00
45872;BME280;32333;55.844;-3.210;2023-04-19T04:01:49;101410.64;;;2.89;100.00
45872;BME280;32333;55.844;-3.210;2023-04-19T04:04:17;101407.57;;;2.64;100.00
45872;BME280;32333;55.844;-3.210;2023-04-19T04:06:44;101403.51;;;2.87;100.00
45872;BME280;32333;55.844;-3.210;2023-04-19T04:09:13;101400.33;;;3.71;100.00
45872;BME280;32333;55.844;-3.210;2023-04-19T04:11:40;101396.25;;;3.66;100.00
45872;BME280;32333;55.844;-3.210;2023-04-19T04:14:35;101396.90;;;4.02;100.00
45872;BME280;32333;55.844;-3.210;2023-04-19T04:17:02;101395.93;;;5.16;100.00
45872;BME280;32333;55.844;-3.210;2023-04-19T04:19:30;101398.62;;;4.51;100.00
45872;BME280;32333;55.844;-3.210;2023-04-19T04:21:57;101398.83;;;3.78;100.00
45872;BME280;32333;55.844;-3.210;2023-04-19T04:24:26;101398.72;;;4.08;100.00
45872;BME280;32333;55.844;-3.210;2023-04-19T04:26:53;101396.37;;;5.13;100.00
45872;BME280;32333;55.844;-3.210;2023-04-19T04:29:21;101400.46;;;4.20;100.00
45872;BME280;32333;55.844;-3.210;2023-04-19T04:31:48;101398.19;;;4.67;100.00
45872;BME280;32333;55.844;-3.210;2023-04-19T04:34:16;101401.05;;;5.15;100.00
45872;BME280;32333;55.844;-3.210;2023-04-19T04:36:43;101397.83;;;4.59;100.00
45872;BME280;32333;55.844;-3.210;2023-04-19T04:39:11;101397.01;;;4.08;100.00
45872;BME280;32333;55.844;-3.210;2023-04-19T04:41:38;101396.60;;;3.48;100.00
45872;BME280;32333;55.844;-3.210;2023-04-19T04:44:36;101392.53;;;4.48;100.00
45872;BME280;32333;55.844;-3.210;2023-04-19T04:47:04;101393.75;;;3.05;100.00
45872;BME280;32333;55.844;-3.210;2023-04-19T04:49:31;101388.23;;;4.34;100.00
45872;BME280;32333;55.844;-3.210;2023-04-19T04:52:00;101384.69;;;5.30;100.00
45872;BME280;32333;55.844;-3.210;2023-04-19T04:54:27;101382.17;;;4.11;100.00
45872;BME280;32333;55.844;-3.210;2023-04-19T04:56:55;101382.01;;;4.02;100.00
45872;BME280;32333;55.844;-3.210;2023-04-19T04:59:22;101380.97;;;4.26;100.00
45872;BME280;32333;55.844;-3.210;2023-04-19T05:01:51;101377.75;;;3.75;100.00
45872;BME280;32333;55.844;-3.210;2023-04-19T05:04:18;101379.65;;;4.07;100.00
45872;BME280;32333;55.844;-3.210;2023-04-19T05:06:46;101382.77;;;4.49;100.00
45872;BME280;32333;55.844;-3.210;2023-04-19T05:09:14;101380.45;;;4.02;100.00
45872;BME280;32333;55.844;-3.210;2023-04-19T05:11:42;101374.25;;;4.56;100.00
45872;BME280;32333;55.844;-3.210;2023-04-19T05:14:35;101373.73;;;4.32;100.00
45872;BME280;32333;55.844;-3.210;2023-04-19T05:17:03;101378.69;;;3.75;100.00
45872;BME280;32333;55.844;-3.210;2023-04-19T05:19:30;101384.91;;;3.73;100.00
45872;BME280;32333;55.844;-3.210;2023-04-19T05:21:57;101381.94;;;3.46;100.00
45872;BME280;32333;55.844;-3.210;2023-04-19T05:24:26;101391.48;;;3.27;100.00
45872;BME280;32333;55.844;-3.210;2023-04-19T05:26:53;101387.40;;;2.73;100.00
45872;BME280;32333;55.844;-3.210;2023-04-19T05:29:20;101393.81;;;3.55;100.00
45872;BME280;32333;55.844;-3.210;2023-04-19T05:31:49;101391.87;;;3.50;100.00
45872;BME280;32333;55.844;-3.210;2023-04-19T05:34:16;101391.57;;;3.47;100.00
45872;BME280;32333;55.844;-3.210;2023-04-19T05:36:44;101402.09;;;3.80;100.00
45872;BME280;32333;55.844;-3.210;2023-04-19T05:39:11;101398.26;;;4.05;100.00
45872;BME280;32333;55.844;-3.210;2023-04-19T05:41:40;101397.29;;;3.94;100.00
45872;BME280;32333;55.844;-3.210;2023-04-19T05:44:35;101401.34;;;4.07;100.00
45872;BME280;32333;55.844;-3.210;2023-04-19T05:47:03;101402.70;;;4.33;100.00
45872;BME280;32333;55.844;-3.210;2023-04-19T05:49:30;101401.13;;;5.13;100.00
45872;BME280;32333;55.844;-3.210;2023-04-19T05:51:58;101399.90;;;3.80;100.00
45872;BME280;32333;55.844;-3.210;2023-04-19T05:54:26;101398.35;;;3.97;100.00
45872;BME280;32333;55.844;-3.210;2023-04-19T05:56:54;101400.73;;;3.97;100.00
45872;BME280;32333;55.844;-3.210;2023-04-19T05:59:21;101400.21;;;4.58;100.00
45872;BME280;32333;55.844;-3.210;2023-04-19T06:01:48;101402.32;;;3.95;100.00
45872;BME280;32333;55.844;-3.210;2023-04-19T06:04:17;101398.12;;;4.50;100.00
45872;BME280;32333;55.844;-3.210;2023-04-19T06:06:44;101395.07;;;3.14;100.00
45872;BME280;32333;55.844;-3.210;2023-04-19T06:09:11;101398.98;;;3.35;100.00
45872;BME280;32333;55.844;-3.210;2023-04-19T06:11:39;101395.97;;;3.20;100.00
45872;BME280;32333;55.844;-3.210;2023-04-19T06:14:37;101395.02;;;2.87;100.00
45872;BME280;32333;55.844;-3.210;2023-04-19T06:17:04;101391.90;;;3.55;100.00
45872;BME280;32333;55.844;-3.210;2023-04-19T06:19:32;101392.85;;;4.19;100.00
45872;BME280;32333;55.844;-3.210;2023-04-19T06:22:00;101391.53;;;4.13;100.00
45872;BME280;32333;55.844;-3.210;2023-04-19T06:24:27;101387.67;;;3.47;100.00
45872;BME280;32333;55.844;-3.210;2023-04-19T06:26:56;101387.55;;;3.40;100.00
45872;BME280;32333;55.844;-3.210;2023-04-19T06:29:23;101384.00;;;3.03;100.00
45872;BME280;32333;55.844;-3.210;2023-04-19T06:31:50;101381.47;;;3.04;100.00
45872;BME280;32333;55.844;-3.210;2023-04-19T06:34:18;101376.44;;;3.10;100.00
45872;BME280;32333;55.844;-3.210;2023-04-19T06:36:45;101374.79;;;3.17;100.00
45872;BME280;32333;55.844;-3.210;2023-04-19T06:39:14;101374.00;;;2.92;100.00
45872;BME280;32333;55.844;-3.210;2023-04-19T06:41:42;101375.12;;;3.57;100.00
45872;BME280;32333;55.844;-3.210;2023-04-19T06:44:36;101373.98;;;4.33;100.00
45872;BME280;32333;55.844;-3.210;2023-04-19T06:47:04;101374.40;;;3.25;100.00
45872;BME280;32333;55.844;-3.210;2023-04-19T06:49:31;101378.00;;;2.92;100.00
45872;BME280;32333;55.844;-3.210;2023-04-19T06:51:59;101381.10;;;2.89;100.00
45872;BME280;32333;55.844;-3.210;2023-04-19T06:54:27;101378.69;;;3.34;100.00
45872;BME280;32333;55.844;-3.210;2023-04-19T06:56:56;101380.22;;;3.68;100.00
45872;BME280;32333;55.844;-3.210;2023-04-19T06:59:23;101382.54;;;4.15;100.00
45872;BME280;32333;55.844;-3.210;2023-04-19T07:01:51;101381.76;;;3.34;100.00
45872;BME280;32333;55.844;-3.210;2023-04-19T07:04:19;101381.08;;;4.07;100.00
45872;BME280;32333;55.844;-3.210;2023-04-19T07:06:48;101382.18;;;4.52;100.00
45872;BME280;32333;55.844;-3.210;2023-04-19T07:09:16;101385.43;;;4.43;100.00
45872;BME280;32333;55.844;-3.210;2023-04-19T07:11:43;101381.96;;;5.13;100.00
45872;BME280;32333;55.844;-3.210;2023-04-19T07:14:36;101386.33;;;5.16;100.00
45872;BME280;32333;55.844;-3.210;2023-04-19T07:17:04;101385.61;;;4.72;100.00
45872;BME280;32333;55.844;-3.210;2023-04-19T07:19:31;101381.97;;;5.02;100.00
45872;BME280;32333;55.844;-3.210;2023-04-19T07:22:00;101379.50;;;5.23;100.00
45872;BME280;32333;55.844;-3.210;2023-04-19T07:24:27;101383.97;;;5.75;100.00
45872;BME280;32333;55.844;-3.210;2023-04-19T07:26:55;101382.75;;;5.97;100.00
45872;BME280;32333;55.844;-3.210;2023-04-19T07:29:22;101388.12;;;5.15;100.00
45872;BME280;32333;55.844;-3.210;2023-04-19T07:31:51;101391.13;;;5.83;100.00
45872;BME280;32333;55.844;-3.210;2023-04-19T07:34:18;101388.24;;;5.07;100.00
45872;BME280;32333;55.844;-3.210;2023-04-19T07:36:45;101390.33;;;5.04;100.00
45872;BME280;32333;55.844;-3.210;2023-04-19T07:39:14;101384.20;;;6.06;100.00
45872;BME280;32333;55.844;-3.210;2023-04-19T07:41:41;101386.05;;;6.20;100.00
45872;BME280;32333;55.844;-3.210;2023-04-19T07:44:36;101382.09;;;7.08;100.00
45872;BME280;32333;55.844;-3.210;2023-04-19T07:47:03;101384.97;;;5.31;100.00
45872;BME280;32333;55.844;-3.210;2023-04-19T07:49:31;101381.61;;;7.17;100.00
45872;BME280;32333;55.844;-3.210;2023-04-19T07:51:59;101377.47;;;6.98;100.00
45872;BME280;32333;55.844;-3.210;2023-04-19T07:54:27;101376.87;;;5.88;100.00
45872;BME280;32333;55.844;-3.210;2023-04-19T07:56:54;101378.60;;;6.24;100.00
45872;BME280;32333;55.844;-3.210;2023-04-19T07:59:21;101384.18;;;6.25;100.00
45872;BME280;32333;55.844;-3.210;2023-04-19T08:01:49;101374.22;;;6.51;100.00
45872;BME280;32333;55.844;-3.210;2023-04-19T08:04:16;101384.31;;;5.48;100.00
45872;BME280;32333;55.844;-3.210;2023-04-19T08:06:44;101375.63;;;6.59;100.00
45872;BME280;32333;55.844;-3.210;2023-04-19T08:09:12;101376.85;;;6.20;100.00
45872;BME280;32333;55.844;-3.210;2023-04-19T08:11:40;101376.69;;;6.27;100.00
45872;BME280;32333;55.844;-3.210;2023-04-19T08:14:35;101369.24;;;6.88;100.00
45872;BME280;32333;55.844;-3.210;2023-04-19T08:17:02;101367.33;;;6.99;100.00
45872;BME280;32333;55.844;-3.210;2023-04-19T08:19:30;101362.74;;;6.98;100.00
45872;BME280;32333;55.844;-3.210;2023-04-19T08:21:58;101364.22;;;6.75;100.00
45872;BME280;32333;55.844;-3.210;2023-04-19T08:24:26;101367.55;;;6.91;100.00
45872;BME280;32333;55.844;-3.210;2023-04-19T08:26:54;101366.02;;;6.85;100.00
45872;BME280;32333;55.844;-3.210;2023-04-19T08:29:23;101362.20;;;7.55;100.00
45872;BME280;32333;55.844;-3.210;2023-04-19T08:31:50;101358.51;;;6.88;100.00
45872;BME280;32333;55.844;-3.210;2023-04-19T08:34:17;101362.34;;;7.26;100.00
45872;BME280;32333;55.844;-3.210;2023-04-19T08:36:44;101364.18;;;7.74;100.00
45872;BME280;32333;55.844;-3.210;2023-04-19T08:39:13;101356.91;;;8.33;100.00
45872;BME280;32333;55.844;-3.210;2023-04-19T08:41:40;101359.36;;;8.10;100.00
45872;BME280;32333;55.844;-3.210;2023-04-19T08:44:36;101359.79;;;9.17;100.00
45872;BME280;32333;55.844;-3.210;2023-04-19T08:47:04;101357.98;;;8.42;100.00
45872;BME280;32333;55.844;-3.210;2023-04-19T08:49:34;101356.33;;;9.19;100.00
45872;BME280;32333;55.844;-3.210;2023-04-19T08:52:02;101354.52;;;9.95;100.00
45872;BME280;32333;55.844;-3.210;2023-04-19T08:54:29;101350.78;;;8.63;100.00
45872;BME280;32333;55.844;-3.210;2023-04-19T08:56:58;101350.17;;;9.00;100.00
45872;BME280;32333;55.844;-3.210;2023-04-19T08:59:26;101355.13;;;8.71;100.00
45872;BME280;32333;55.844;-3.210;2023-04-19T09:01:54;101350.80;;;7.91;100.00
45872;BME280;32333;55.844;-3.210;2023-04-19T09:04:22;101348.47;;;8.76;100.00
45872;BME280;32333;55.844;-3.210;2023-04-19T09:06:49;101348.29;;;8.44;100.00
45872;BME280;32333;55.844;-3.210;2023-04-19T09:09:18;101350.27;;;8.61;100.00
45872;BME280;32333;55.844;-3.210;2023-04-19T09:11:46;101350.97;;;9.30;100.00
45872;BME280;32333;55.844;-3.210;2023-04-19T09:14:43;101349.50;;;9.73;100.00
45872;BME280;32333;55.844;-3.210;2023-04-19T09:17:12;101346.97;;;9.10;100.00
45872;BME280;32333;55.844;-3.210;2023-04-19T09:19:45;101335.02;;;10.47;100.00
45872;BME280;32333;55.844;-3.210;2023-04-19T09:22:13;101339.69;;;9.59;100.00
45872;BME280;32333;55.844;-3.210;2023-04-19T09:24:41;101336.56;;;10.66;100.00
45872;BME280;32333;55.844;-3.210;2023-04-19T09:27:09;101334.32;;;10.83;100.00
45872;BME280;32333;55.844;-3.210;2023-04-19T09:29:36;101333.87;;;10.72;100.00
45872;BME280;32333;55.844;-3.210;2023-04-19T09:32:04;101339.47;;;10.24;100.00
45872;BME280;32333;55.844;-3.210;2023-04-19T09:34:32;101333.33;;;10.47;100.00
45872;BME280;32333;55.844;-3.210;2023-04-19T09:37:11;101337.81;;;9.48;100.00
45872;BME280;32333;55.844;-3.210;2023-04-19T09:39:45;101328.38;;;10.58;100.00
45872;BME280;32333;55.844;-3.210;2023-04-19T09:44:35;101319.63;;;12.50;100.00
45872;BME280;32333;55.844;-3.210;2023-04-19T09:47:20;101319.89;;;12.87;100.00
45872;BME280;32333;55.844;-3.210;2023-04-19T09:50:03;101313.47;;;11.19;100.00
45872;BME280;32333;55.844;-3.210;2023-04-19T09:52:31;101322.56;;;10.27;100.00
45872;BME280;32333;55.844;-3.210;2023-04-19T09:55:00;101317.04;;;11.00;100.00
45872;BME280;32333;55.844;-3.210;2023-04-19T09:57:28;101311.88;;;10.96;100.00
45872;BME280;32333;55.844;-3.210;2023-04-19T09:59:58;101315.88;;;11.48;100.00
45872;BME280;32333;55.844;-3.210;2023-04-19T10:02:30;101310.07;;;11.27;100.00
45872;BME280;32333;55.844;-3.210;2023-04-19T10:05:00;101308.61;;;10.83;100.00
45872;BME280;32333;55.844;-3.210;2023-04-19T10:07:28;101319.06;;;10.41;100.00
45872;BME280;32333;55.844;-3.210;2023-04-19T10:09:59;101302.04;;;10.50;100.00
45872;BME280;32333;55.844;-3.210;2023-04-19T10:14:35;101315.66;;;10.62;100.00
45872;BME280;32333;55.844;-3.210;2023-04-19T10:17:04;101314.03;;;10.54;100.00
45872;BME280;32333;55.844;-3.210;2023-04-19T10:19:34;101308.20;;;10.45;100.00
45872;BME280;32333;55.844;-3.210;2023-04-19T10:22:02;101305.61;;;10.87;100.00
45872;BME280;32333;55.844;-3.210;2023-04-19T10:24:30;101295.90;;;11.18;100.00
45872;BME280;32333;55.844;-3.210;2023-04-19T10:27:08;101309.97;;;9.54;100.00
45872;BME280;32333;55.844;-3.210;2023-04-19T10:30:16;101295.58;;;11.52;100.00
45872;BME280;32333;55.844;-3.210;2023-04-19T10:32:50;101287.86;;;10.70;100.00
45872;BME280;32333;55.844;-3.210;2023-04-19T10:35:21;101283.59;;;10.35;100.00
45872;BME280;32333;55.844;-3.210;2023-04-19T10:38:07;101279.95;;;9.90;100.00
45872;BME280;32333;55.844;-3.210;2023-04-19T10:41:08;101296.52;;;9.48;100.00
45872;BME280;32333;55.844;-3.210;2023-04-19T10:44:35;101285.70;;;9.75;100.00
45872;BME280;32333;55.844;-3.210;2023-04-19T10:47:04;101290.51;;;8.47;100.00
45872;BME280;32333;55.844;-3.210;2023-04-19T10:49:43;101290.56;;;9.15;100.00
45872;BME280;32333;55.844;-3.210;2023-04-19T10:52:26;101296.06;;;9.30;100.00
45872;BME280;32333;55.844;-3.210;2023-04-19T10:54:55;101292.95;;;9.23;100.00
45872;BME280;32333;55.844;-3.210;2023-04-19T10:57:23;101282.89;;;9.87;100.00
45872;BME280;32333;55.844;-3.210;2023-04-19T11:00:17;101292.47;;;9.97;100.00
45872;BME280;32333;55.844;-3.210;2023-04-19T11:02:46;101283.69;;;10.04;100.00
45872;BME280;32333;55.844;-3.210;2023-04-19T11:05:13;101268.56;;;10.24;100.00
45872;BME280;32333;55.844;-3.210;2023-04-19T11:07:41;101264.71;;;10.83;100.00
45872;BME280;32333;55.844;-3.210;2023-04-19T11:10:10;101268.27;;;10.93;100.00
45872;BME280;32333;55.844;-3.210;2023-04-19T11:14:38;101267.89;;;11.04;100.00
45872;BME280;32333;55.844;-3.210;2023-04-19T11:17:14;101269.71;;;11.72;99.58
45872;BME280;32333;55.844;-3.210;2023-04-19T11:19:43;101265.42;;;11.09;97.59
45872;BME280;32333;55.844;-3.210;2023-04-19T11:22:11;101260.75;;;11.40;99.67
45872;BME280;32333;55.844;-3.210;2023-04-19T11:24:44;101253.91;;;10.94;99.34
45872;BME280;32333;55.844;-3.210;2023-04-19T11:27:11;101274.37;;;9.98;100.00
45872;BME280;32333;55.844;-3.210;2023-04-19T11:29:39;101267.88;;;10.17;100.00
45872;BME280;32333;55.844;-3.210;2023-04-19T11:32:06;101247.15;;;10.39;100.00
45872;BME280;32333;55.844;-3.210;2023-04-19T11:34:35;101269.39;;;10.32;100.00
45872;BME280;32333;55.844;-3.210;2023-04-19T11:37:02;101267.09;;;9.97;100.00
45872;BME280;32333;55.844;-3.210;2023-04-19T11:39:30;101276.62;;;10.66;100.00
45872;BME280;32333;55.844;-3.210;2023-04-19T11:41:57;101281.10;;;10.62;100.00
45872;BME280;32333;55.844;-3.210;2023-04-19T11:44:36;101266.87;;;11.97;100.00
45872;BME280;32333;55.844;-3.210;2023-04-19T11:47:03;101260.01;;;11.07;100.00
45872;BME280;32333;55.844;-3.210;2023-04-19T11:49:32;101259.56;;;9.90;100.00
45872;BME280;32333;55.844;-3.210;2023-04-19T11:52:04;101261.50;;;10.45;100.00
45872;BME280;32333;55.844;-3.210;2023-04-19T11:54:33;101265.52;;;10.89;99.45
45872;BME280;32333;55.844;-3.210;2023-04-19T11:57:02;101266.35;;;10.97;100.00
45872;BME280;32333;55.844;-3.210;2023-04-19T11:59:32;101247.92;;;10.13;99.65
45872;BME280;32333;55.844;-3.210;2023-04-19T12:02:09;101286.06;;;10.10;100.00
45872;BME280;32333;55.844;-3.210;2023-04-19T12:04:38;101271.02;;;9.31;100.00
45872;BME280;32333;55.844;-3.210;2023-04-19T12:07:09;101276.76;;;9.42;100.00
45872;BME280;32333;55.844;-3.210;2023-04-19T12:09:37;101274.56;;;10.12;100.00
45872;BME280;32333;55.844;-3.210;2023-04-19T12:14:36;101260.64;;;10.32;100.00
45872;BME280;32333;55.844;-3.210;2023-04-19T12:17:08;101254.86;;;9.30;100.00
45872;BME280;32333;55.844;-3.210;2023-04-19T12:19:40;101242.31;;;9.94;100.00
45872;BME280;32333;55.844;-3.210;2023-04-19T12:22:11;101269.41;;;10.12;99.79
45872;BME280;32333;55.844;-3.210;2023-04-19T12:24:39;101242.16;;;9.47;95.32
45872;BME280;32333;55.844;-3.210;2023-04-19T12:27:08;101235.37;;;10.01;97.46
45872;BME280;32333;55.844;-3.210;2023-04-19T12:29:36;101265.15;;;9.32;97.26
45872;BME280;32333;55.844;-3.210;2023-04-19T12:32:05;101261.36;;;9.99;91.52
45872;BME280;32333;55.844;-3.210;2023-04-19T12:34:34;101265.69;;;9.64;91.02
45872;BME280;32333;55.844;-3.210;2023-04-19T12:37:01;101269.10;;;9.66;95.15
45872;BME280;32333;55.844;-3.210;2023-04-19T12:39:30;101266.08;;;9.84;94.04
45872;BME280;32333;55.844;-3.210;2023-04-19T12:41:58;101267.90;;;9.76;95.26
45872;BME280;32333;55.844;-3.210;2023-04-19T12:44:36;101251.94;;;10.03;89.49
45872;BME280;32333;55.844;-3.210;2023-04-19T12:47:03;101260.12;;;9.67;92.95
45872;BME280;32333;55.844;-3.210;2023-04-19T12:49:30;101279.74;;;9.90;92.96
45872;BME280;32333;55.844;-3.210;2023-04-19T12:51:59;101264.77;;;9.81;90.20
45872;BME280;32333;55.844;-3.210;2023-04-19T12:54:26;101278.70;;;9.51;91.08
45872;BME280;32333;55.844;-3.210;2023-04-19T12:56:53;101277.27;;;9.14;92.35
45872;BME280;32333;55.844;-3.210;2023-04-19T12:59:20;101266.25;;;9.80;90.84
45872;BME280;32333;55.844;-3.210;2023-04-19T13:01:48;101282.27;;;9.71;96.79
45872;BME280;32333;55.844;-3.210;2023-04-19T13:04:15;101272.74;;;9.82;92.53